sensor_id;sensor_type;location;lat;lon;timestamp;P1;durP1;ratioP1;P2;durP2;ratioP2
20984;SDS011;10651;47.552;7.606;2022-11-24T06:22:58;16.02;;;4.32;;
20984;SDS011;10651;47.552;7.606;2022-11-24T06:25:25;19.70;;;4.75;;
20984;SDS011;10651;47.552;7.606;2022-11-24T06:27:51;12.68;;;3.55;;
20984;SDS011;10651;47.552;7.606;2022-11-24T06:30:17;15.13;;;4.13;;
20984;SDS011;10651;47.552;7.606;2022-11-24T06:32:43;20.43;;;4.40;;
20984;SDS011;10651;47.552;7.606;2022-11-24T06:35:13;16.75;;;3.92;;
20984;SDS011;10651;47.552;7.606;2022-11-24T06:37:38;10.35;;;4.05;;
20984;SDS011;10651;47.552;7.606;2022-11-24T06:40:05;13.40;;;3.45;;
20984;SDS011;10651;47.552;7.606;2022-11-24T06:42:33;10.95;;;3.47;;
20984;SDS011;10651;47.552;7.606;2022-11-24T06:44:59;19.10;;;3.53;;
20984;SDS011;10651;47.552;7.606;2022-11-24T06:47:25;15.32;;;3.22;;
20984;SDS011;10651;47.552;7.606;2022-11-24T06:49:50;17.10;;;4.10;;
20984;SDS011;10651;47.552;7.606;2022-11-24T06:52:16;17.98;;;3.45;;
20984;SDS011;10651;47.552;7.606;2022-11-24T06:54:42;10.40;;;3.92;;
20984;SDS011;10651;47.552;7.606;2022-11-24T06:57:08;14.15;;;3.85;;
20984;SDS011;10651;47.552;7.606;2022-11-24T06:59:33;17.85;;;4.60;;
20984;SDS011;10651;47.552;7.606;2022-11-24T07:01:59;11.48;;;4.03;;
20984;SDS011;10651;47.552;7.606;2022-11-24T07:04:25;15.47;;;4.93;;
20984;SDS011;10651;47.552;7.606;2022-11-24T07:06:50;15.10;;;4.35;;
20984;SDS011;10651;47.552;7.606;2022-11-24T07:09:16;18.63;;;4.40;;
20984;SDS011;10651;47.552;7.606;2022-11-24T07:11:42;16.73;;;4.28;;
20984;SDS011;10651;47.552;7.606;2022-11-24T07:14:08;17.38;;;4.60;;
20984;SDS011;10651;47.552;7.606;2022-11-24T07:16:34;12.68;;;3.80;;
20984;SDS011;10651;47.552;7.606;2022-11-24T07:19:00;18.80;;;4.22;;
20984;SDS011;10651;47.552;7.606;2022-11-24T07:21:26;9.90;;;3.90;;
20984;SDS011;10651;47.552;7.606;2022-11-24T07:23:54;17.20;;;4.60;;
20984;SDS011;10651;47.552;7.606;2022-11-24T07:26:21;21.92;;;4.40;;
20984;SDS011;10651;47.552;7.606;2022-11-24T07:28:47;19.08;;;4.38;;
20984;SDS011;10651;47.552;7.606;2022-11-24T07:31:14;19.98;;;5.13;;
20984;SDS011;10651;47.552;7.606;2022-11-24T07:33:48;14.27;;;3.97;;
20984;SDS011;10651;47.552;7.606;2022-11-24T07:36:14;12.30;;;4.28;;
20984;SDS011;10651;47.552;7.606;2022-11-24T07:38:40;19.92;;;4.82;;
20984;SDS011;10651;47.552;7.606;2022-11-24T07:41:06;18.67;;;4.20;;
20984;SDS011;10651;47.552;7.606;2022-11-24T07:43:34;16.90;;;4.53;;
20984;SDS011;10651;47.552;7.606;2022-11-24T07:46:01;17.60;;;4.00;;
20984;SDS011;10651;47.552;7.606;2022-11-24T07:48:28;17.17;;;3.65;;
20984;SDS011;10651;47.552;7.606;2022-11-24T07:50:54;9.02;;;4.80;;
20984;SDS011;10651;47.552;7.606;2022-11-24T07:53:23;15.48;;;3.70;;
20984;SDS011;10651;47.552;7.606;2022-11-24T07:55:52;9.43;;;3.80;;
20984;SDS011;10651;47.552;7.606;2022-11-24T07:58:25;11.65;;;4.05;;
20984;SDS011;10651;47.552;7.606;2022-11-24T08:00:55;13.57;;;3.90;;
20984;SDS011;10651;47.552;7.606;2022-11-24T08:03:22;14.70;;;4.63;;
20984;SDS011;10651;47.552;7.606;2022-11-24T08:05:53;16.70;;;5.00;;
20984;SDS011;10651;47.552;7.606;2022-11-24T08:08:19;18.05;;;4.47;;
20984;SDS011;10651;47.552;7.606;2022-11-24T08:10:45;15.50;;;4.32;;
20984;SDS011;10651;47.552;7.606;2022-11-24T08:13:11;20.92;;;4.53;;
20984;SDS011;10651;47.552;7.606;2022-11-24T08:15:37;12.27;;;4.05;;
20984;SDS011;10651;47.552;7.606;2022-11-24T08:18:03;14.70;;;3.55;;
20984;SDS011;10651;47.552;7.606;2022-11-24T08:20:29;14.82;;;4.03;;
20984;SDS011;10651;47.552;7.606;2022-11-24T08:22:58;20.45;;;4.80;;
20984;SDS011;10651;47.552;7.606;2022-11-24T08:25:27;18.67;;;4.93;;
20984;SDS011;10651;47.552;7.606;2022-11-24T08:27:57;24.52;;;5.80;;
20984;SDS011;10651;47.552;7.606;2022-11-24T08:30:26;21.73;;;5.38;;
20984;SDS011;10651;47.552;7.606;2022-11-24T08:32:52;20.30;;;6.93;;
20984;SDS011;10651;47.552;7.606;2022-11-24T08:35:18;20.02;;;5.13;;
20984;SDS011;10651;47.552;7.606;2022-11-24T08:37:44;20.40;;;5.10;;
20984;SDS011;10651;47.552;7.606;2022-11-24T08:40:10;19.77;;;5.05;;
20984;SDS011;10651;47.552;7.606;2022-11-24T08:42:36;19.02;;;4.03;;
20984;SDS011;10651;47.552;7.606;2022-11-24T08:45:02;9.30;;;4.20;;
20984;SDS011;10651;47.552;7.606;2022-11-24T08:47:28;22.23;;;4.60;;
20984;SDS011;10651;47.552;7.606;2022-11-24T08:49:54;14.77;;;4.30;;
20984;SDS011;10651;47.552;7.606;2022-11-24T08:52:19;14.60;;;3.35;;
20984;SDS011;10651;47.552;7.606;2022-11-24T08:54:45;16.58;;;4.90;;
20984;SDS011;10651;47.552;7.606;2022-11-24T08:57:12;59.28;;;22.83;;
20984;SDS011;10651;47.552;7.606;2022-11-24T08:59:38;15.27;;;4.60;;
20984;SDS011;10651;47.552;7.606;2022-11-24T09:02:03;22.05;;;8.98;;
20984;SDS011;10651;47.552;7.606;2022-11-24T09:04:30;24.33;;;9.13;;
20984;SDS011;10651;47.552;7.606;2022-11-24T09:06:56;25.10;;;10.85;;
20984;SDS011;10651;47.552;7.606;2022-11-24T09:09:22;33.78;;;13.02;;
20984;SDS011;10651;47.552;7.606;2022-11-24T09:11:47;12.45;;;4.05;;
20984;SDS011;10651;47.552;7.606;2022-11-24T09:14:13;10.52;;;3.67;;
20984;SDS011;10651;47.552;7.606;2022-11-24T09:16:39;11.68;;;3.42;;
20984;SDS011;10651;47.552;7.606;2022-11-24T09:19:05;9.65;;;3.00;;
20984;SDS011;10651;47.552;7.606;2022-11-24T09:21:32;8.45;;;3.80;;
20984;SDS011;10651;47.552;7.606;2022-11-24T09:24:01;12.40;;;3.10;;
20984;SDS011;10651;47.552;7.606;2022-11-24T09:26:28;9.68;;;3.35;;
20984;SDS011;10651;47.552;7.606;2022-11-24T09:28:56;7.88;;;3.30;;
20984;SDS011;10651;47.552;7.606;2022-11-24T09:31:24;9.30;;;3.00;;
20984;SDS011;10651;47.552;7.606;2022-11-24T09:33:51;9.65;;;2.95;;
20984;SDS011;10651;47.552;7.606;2022-11-24T09:36:18;11.63;;;2.88;;
20984;SDS011;10651;47.552;7.606;2022-11-24T09:38:44;6.97;;;2.75;;
20984;SDS011;10651;47.552;7.606;2022-11-24T09:49:16;11.80;;;3.05;;
20984;SDS011;10651;47.552;7.606;2022-11-24T09:51:48;6.55;;;2.55;;
20984;SDS011;10651;47.552;7.606;2022-11-24T09:54:20;6.43;;;2.53;;
20984;SDS011;10651;47.552;7.606;2022-11-24T09:56:52;11.32;;;2.75;;
20984;SDS011;10651;47.552;7.606;2022-11-24T09:59:22;10.00;;;3.30;;
20984;SDS011;10651;47.552;7.606;2022-11-24T10:01:50;10.48;;;2.60;;
20984;SDS011;10651;47.552;7.606;2022-11-24T10:24:14;13.65;;;2.92;;
20984;SDS011;10651;47.552;7.606;2022-11-24T10:27:02;12.57;;;3.17;;
20984;SDS011;10651;47.552;7.606;2022-11-24T10:29:39;14.10;;;3.25;;
20984;SDS011;10651;47.552;7.606;2022-11-24T10:32:19;12.52;;;3.45;;
20984;SDS011;10651;47.552;7.606;2022-11-24T10:34:49;16.27;;;3.53;;
20984;SDS011;10651;47.552;7.606;2022-11-24T10:40:12;15.77;;;3.08;;
20984;SDS011;10651;47.552;7.606;2022-11-24T10:42:47;15.30;;;2.88;;
20984;SDS011;10651;47.552;7.606;2022-11-24T10:45:16;12.25;;;3.78;;
20984;SDS011;10651;47.552;7.606;2022-11-24T10:47:46;7.97;;;2.88;;
20984;SDS011;10651;47.552;7.606;2022-11-24T10:52:45;7.80;;;2.33;;
20984;SDS011;10651;47.552;7.606;2022-11-24T10:58:32;10.18;;;2.60;;
20984;SDS011;10651;47.552;7.606;2022-11-24T11:01:01;8.25;;;1.80;;
20984;SDS011;10651;47.552;7.606;2022-11-24T11:03:49;9.82;;;2.60;;
20984;SDS011;10651;47.552;7.606;2022-11-24T11:06:20;9.02;;;2.10;;
20984;SDS011;10651;47.552;7.606;2022-11-24T11:08:48;9.98;;;2.03;;
20984;SDS011;10651;47.552;7.606;2022-11-24T11:11:21;5.47;;;2.08;;
20984;SDS011;10651;47.552;7.606;2022-11-24T11:16:22;8.90;;;1.90;;
20984;SDS011;10651;47.552;7.606;2022-11-24T11:18:48;7.85;;;1.63;;
20984;SDS011;10651;47.552;7.606;2022-11-24T11:24:03;9.85;;;2.30;;
20984;SDS011;10651;47.552;7.606;2022-11-24T11:26:37;8.60;;;2.28;;
20984;SDS011;10651;47.552;7.606;2022-11-24T11:31:32;11.70;;;2.35;;
20984;SDS011;10651;47.552;7.606;2022-11-24T11:36:44;15.00;;;3.33;;
20984;SDS011;10651;47.552;7.606;2022-11-24T11:41:56;9.93;;;2.70;;
20984;SDS011;10651;47.552;7.606;2022-11-24T11:47:29;10.45;;;2.22;;
20984;SDS011;10651;47.552;7.606;2022-11-24T11:50:17;9.05;;;2.40;;
20984;SDS011;10651;47.552;7.606;2022-11-24T12:00:26;8.82;;;2.40;;
20984;SDS011;10651;47.552;7.606;2022-11-24T12:09:15;5.20;;;1.50;;
20984;SDS011;10651;47.552;7.606;2022-11-24T12:12:15;8.50;;;1.70;;
20984;SDS011;10651;47.552;7.606;2022-11-24T12:15:08;9.95;;;2.20;;
20984;SDS011;10651;47.552;7.606;2022-11-24T12:18:03;7.43;;;1.80;;
20984;SDS011;10651;47.552;7.606;2022-11-24T12:31:04;8.98;;;1.73;;
20984;SDS011;10651;47.552;7.606;2022-11-24T12:36:22;7.75;;;2.20;;
20984;SDS011;10651;47.552;7.606;2022-11-24T12:47:42;9.05;;;1.60;;
20984;SDS011;10651;47.552;7.606;2022-11-24T12:52:47;10.48;;;2.50;;
20984;SDS011;10651;47.552;7.606;2022-11-24T12:55:16;6.15;;;1.73;;
20984;SDS011;10651;47.552;7.606;2022-11-24T12:57:50;7.72;;;2.13;;
20984;SDS011;10651;47.552;7.606;2022-11-24T13:08:34;7.57;;;2.08;;
20984;SDS011;10651;47.552;7.606;2022-11-24T13:16:31;10.70;;;2.38;;
20984;SDS011;10651;47.552;7.606;2022-11-24T13:18:58;11.63;;;2.20;;
20984;SDS011;10651;47.552;7.606;2022-11-24T13:31:51;13.38;;;2.20;;
20984;SDS011;10651;47.552;7.606;2022-11-24T13:37:17;10.40;;;2.80;;
20984;SDS011;10651;47.552;7.606;2022-11-24T13:39:47;11.48;;;3.10;;
20984;SDS011;10651;47.552;7.606;2022-11-24T13:42:14;7.07;;;2.58;;
20984;SDS011;10651;47.552;7.606;2022-11-24T13:44:44;12.93;;;2.95;;
20984;SDS011;10651;47.552;7.606;2022-11-24T13:50:07;10.98;;;2.55;;
20984;SDS011;10651;47.552;7.606;2022-11-24T13:55:17;16.58;;;3.00;;
20984;SDS011;10651;47.552;7.606;2022-11-24T14:02:49;9.50;;;2.28;;
20984;SDS011;10651;47.552;7.606;2022-11-24T14:05:21;15.88;;;2.85;;
20984;SDS011;10651;47.552;7.606;2022-11-24T14:07:57;10.15;;;3.03;;
20984;SDS011;10651;47.552;7.606;2022-11-24T14:10:30;14.95;;;3.20;;
20984;SDS011;10651;47.552;7.606;2022-11-24T14:15:58;20.52;;;3.20;;
20984;SDS011;10651;47.552;7.606;2022-11-24T14:18:29;13.25;;;3.08;;
20984;SDS011;10651;47.552;7.606;2022-11-24T14:20:57;17.70;;;3.00;;
20984;SDS011;10651;47.552;7.606;2022-11-24T14:23:24;10.25;;;3.25;;
20984;SDS011;10651;47.552;7.606;2022-11-24T14:25:50;9.68;;;3.00;;
20984;SDS011;10651;47.552;7.606;2022-11-24T14:28:26;10.88;;;3.17;;
20984;SDS011;10651;47.552;7.606;2022-11-24T14:31:06;10.98;;;3.00;;
20984;SDS011;10651;47.552;7.606;2022-11-24T14:33:32;16.60;;;3.03;;
20984;SDS011;10651;47.552;7.606;2022-11-24T14:35:58;12.38;;;2.90;;
20984;SDS011;10651;47.552;7.606;2022-11-24T14:38:24;14.73;;;3.50;;
20984;SDS011;10651;47.552;7.606;2022-11-24T14:40:50;14.10;;;3.58;;
20984;SDS011;10651;47.552;7.606;2022-11-24T14:43:28;11.25;;;2.88;;
20984;SDS011;10651;47.552;7.606;2022-11-24T14:48:30;25.48;;;4.72;;
20984;SDS011;10651;47.552;7.606;2022-11-24T14:51:07;29.45;;;5.00;;
20984;SDS011;10651;47.552;7.606;2022-11-24T14:53:39;27.08;;;4.60;;
20984;SDS011;10651;47.552;7.606;2022-11-24T14:56:06;22.65;;;4.47;;
20984;SDS011;10651;47.552;7.606;2022-11-24T14:58:33;23.00;;;4.60;;
20984;SDS011;10651;47.552;7.606;2022-11-24T15:06:45;26.00;;;4.78;;
20984;SDS011;10651;47.552;7.606;2022-11-24T15:09:18;16.00;;;3.58;;
20984;SDS011;10651;47.552;7.606;2022-11-24T15:11:47;24.23;;;5.07;;
20984;SDS011;10651;47.552;7.606;2022-11-24T15:14:27;24.13;;;4.82;;
20984;SDS011;10651;47.552;7.606;2022-11-24T15:17:06;19.42;;;4.38;;
20984;SDS011;10651;47.552;7.606;2022-11-24T15:19:32;13.27;;;4.35;;
20984;SDS011;10651;47.552;7.606;2022-11-24T15:21:59;10.00;;;4.03;;
20984;SDS011;10651;47.552;7.606;2022-11-24T15:24:49;36.63;;;17.70;;
20984;SDS011;10651;47.552;7.606;2022-11-24T15:27:17;37.20;;;16.90;;
20984;SDS011;10651;47.552;7.606;2022-11-24T15:29:43;29.67;;;13.35;;
20984;SDS011;10651;47.552;7.606;2022-11-24T15:32:14;24.58;;;9.73;;
20984;SDS011;10651;47.552;7.606;2022-11-24T15:34:40;24.38;;;10.77;;
20984;SDS011;10651;47.552;7.606;2022-11-24T15:37:09;21.88;;;8.00;;
20984;SDS011;10651;47.552;7.606;2022-11-24T15:39:35;22.55;;;6.13;;
20984;SDS011;10651;47.552;7.606;2022-11-24T15:42:01;22.65;;;6.75;;
20984;SDS011;10651;47.552;7.606;2022-11-24T15:44:26;20.67;;;7.35;;
20984;SDS011;10651;47.552;7.606;2022-11-24T15:46:53;16.40;;;6.15;;
20984;SDS011;10651;47.552;7.606;2022-11-24T15:49:19;18.65;;;5.00;;
20984;SDS011;10651;47.552;7.606;2022-11-24T15:51:45;16.08;;;4.57;;
20984;SDS011;10651;47.552;7.606;2022-11-24T15:54:12;15.20;;;4.28;;
20984;SDS011;10651;47.552;7.606;2022-11-24T15:56:40;24.45;;;4.75;;
20984;SDS011;10651;47.552;7.606;2022-11-24T15:59:12;16.15;;;4.78;;
20984;SDS011;10651;47.552;7.606;2022-11-24T16:01:42;24.02;;;4.07;;
20984;SDS011;10651;47.552;7.606;2022-11-24T16:04:10;13.95;;;4.22;;
20984;SDS011;10651;47.552;7.606;2022-11-24T16:06:37;18.67;;;3.67;;
20984;SDS011;10651;47.552;7.606;2022-11-24T16:09:02;19.58;;;5.00;;
20984;SDS011;10651;47.552;7.606;2022-11-24T16:11:28;36.80;;;5.07;;
20984;SDS011;10651;47.552;7.606;2022-11-24T16:13:54;17.38;;;4.70;;
20984;SDS011;10651;47.552;7.606;2022-11-24T16:16:20;13.10;;;3.83;;
20984;SDS011;10651;47.552;7.606;2022-11-24T16:18:48;24.52;;;5.13;;
20984;SDS011;10651;47.552;7.606;2022-11-24T16:21:14;15.70;;;4.97;;
20984;SDS011;10651;47.552;7.606;2022-11-24T16:23:40;15.27;;;4.80;;
20984;SDS011;10651;47.552;7.606;2022-11-24T16:26:06;14.50;;;4.43;;
20984;SDS011;10651;47.552;7.606;2022-11-24T16:28:31;20.50;;;6.88;;
20984;SDS011;10651;47.552;7.606;2022-11-24T16:30:57;28.90;;;11.63;;
20984;SDS011;10651;47.552;7.606;2022-11-24T16:33:23;26.77;;;6.80;;
20984;SDS011;10651;47.552;7.606;2022-11-24T16:35:48;23.00;;;6.05;;
20984;SDS011;10651;47.552;7.606;2022-11-24T16:38:15;25.15;;;7.25;;
20984;SDS011;10651;47.552;7.606;2022-11-24T16:40:41;16.25;;;6.22;;
20984;SDS011;10651;47.552;7.606;2022-11-24T16:43:07;22.75;;;7.00;;
20984;SDS011;10651;47.552;7.606;2022-11-24T16:45:33;21.27;;;5.55;;
20984;SDS011;10651;47.552;7.606;2022-11-24T16:47:59;16.37;;;5.70;;
20984;SDS011;10651;47.552;7.606;2022-11-24T16:50:25;21.95;;;5.70;;
20984;SDS011;10651;47.552;7.606;2022-11-24T16:52:50;17.50;;;4.47;;
20984;SDS011;10651;47.552;7.606;2022-11-24T16:55:16;19.30;;;4.70;;
20984;SDS011;10651;47.552;7.606;2022-11-24T16:57:42;19.13;;;4.72;;
20984;SDS011;10651;47.552;7.606;2022-11-24T17:00:08;16.65;;;5.43;;
20984;SDS011;10651;47.552;7.606;2022-11-24T17:02:35;12.50;;;5.22;;
20984;SDS011;10651;47.552;7.606;2022-11-24T17:05:01;16.47;;;5.23;;
20984;SDS011;10651;47.552;7.606;2022-11-24T17:07:26;13.95;;;5.55;;
20984;SDS011;10651;47.552;7.606;2022-11-24T17:09:52;14.70;;;5.60;;
20984;SDS011;10651;47.552;7.606;2022-11-24T17:12:18;13.85;;;5.00;;
20984;SDS011;10651;47.552;7.606;2022-11-24T17:14:43;14.82;;;5.63;;
20984;SDS011;10651;47.552;7.606;2022-11-24T17:17:09;12.50;;;5.13;;
20984;SDS011;10651;47.552;7.606;2022-11-24T17:19:35;17.20;;;5.72;;
20984;SDS011;10651;47.552;7.606;2022-11-24T17:22:01;18.85;;;6.03;;
20984;SDS011;10651;47.552;7.606;2022-11-24T17:24:27;15.13;;;5.47;;
20984;SDS011;10651;47.552;7.606;2022-11-24T17:26:53;11.50;;;4.75;;
20984;SDS011;10651;47.552;7.606;2022-11-24T17:29:19;20.35;;;5.35;;
20984;SDS011;10651;47.552;7.606;2022-11-24T17:31:45;12.73;;;5.25;;
20984;SDS011;10651;47.552;7.606;2022-11-24T17:34:11;15.13;;;5.40;;
20984;SDS011;10651;47.552;7.606;2022-11-24T17:36:37;11.73;;;5.03;;
20984;SDS011;10651;47.552;7.606;2022-11-24T17:39:04;16.88;;;5.65;;
20984;SDS011;10651;47.552;7.606;2022-11-24T17:41:31;16.80;;;5.93;;
20984;SDS011;10651;47.552;7.606;2022-11-24T17:43:57;14.52;;;5.85;;
20984;SDS011;10651;47.552;7.606;2022-11-24T17:49:17;19.92;;;5.70;;
20984;SDS011;10651;47.552;7.606;2022-11-24T17:51:45;12.32;;;4.70;;
20984;SDS011;10651;47.552;7.606;2022-11-24T17:54:14;12.90;;;4.68;;
20984;SDS011;10651;47.552;7.606;2022-11-24T17:56:41;12.73;;;5.18;;
20984;SDS011;10651;47.552;7.606;2022-11-24T17:59:07;12.25;;;4.93;;
20984;SDS011;10651;47.552;7.606;2022-11-24T18:01:33;16.50;;;5.75;;
20984;SDS011;10651;47.552;7.606;2022-11-24T18:03:59;10.68;;;5.10;;
20984;SDS011;10651;47.552;7.606;2022-11-24T18:06:25;14.68;;;5.35;;
20984;SDS011;10651;47.552;7.606;2022-11-24T18:08:52;16.25;;;6.82;;
20984;SDS011;10651;47.552;7.606;2022-11-24T18:11:21;19.73;;;5.60;;
20984;SDS011;10651;47.552;7.606;2022-11-24T18:13:57;11.32;;;5.28;;
20984;SDS011;10651;47.552;7.606;2022-11-24T18:16:25;13.43;;;5.63;;
20984;SDS011;10651;47.552;7.606;2022-11-24T18:18:55;17.38;;;5.53;;
20984;SDS011;10651;47.552;7.606;2022-11-24T18:21:22;10.10;;;5.95;;
20984;SDS011;10651;47.552;7.606;2022-11-24T18:23:49;13.73;;;6.80;;
20984;SDS011;10651;47.552;7.606;2022-11-24T18:26:15;20.40;;;6.20;;
20984;SDS011;10651;47.552;7.606;2022-11-24T18:28:41;17.40;;;6.80;;
20984;SDS011;10651;47.552;7.606;2022-11-24T18:31:12;14.95;;;6.18;;
20984;SDS011;10651;47.552;7.606;2022-11-24T18:33:39;14.25;;;5.68;;
20984;SDS011;10651;47.552;7.606;2022-11-24T18:36:06;13.02;;;6.28;;
20984;SDS011;10651;47.552;7.606;2022-11-24T18:38:34;11.73;;;5.97;;
20984;SDS011;10651;47.552;7.606;2022-11-24T18:41:01;15.82;;;6.35;;
20984;SDS011;10651;47.552;7.606;2022-11-24T18:43:27;11.88;;;6.05;;
20984;SDS011;10651;47.552;7.606;2022-11-24T18:45:53;18.02;;;5.57;;
20984;SDS011;10651;47.552;7.606;2022-11-24T18:48:20;11.82;;;6.13;;
20984;SDS011;10651;47.552;7.606;2022-11-24T18:50:50;16.23;;;7.07;;
20984;SDS011;10651;47.552;7.606;2022-11-24T18:53:18;10.02;;;6.40;;
20984;SDS011;10651;47.552;7.606;2022-11-24T18:55:54;17.42;;;6.05;;
20984;SDS011;10651;47.552;7.606;2022-11-24T18:58:31;16.83;;;6.15;;
20984;SDS011;10651;47.552;7.606;2022-11-24T19:01:07;14.10;;;7.20;;
20984;SDS011;10651;47.552;7.606;2022-11-24T19:03:38;13.95;;;6.35;;
20984;SDS011;10651;47.552;7.606;2022-11-24T19:06:06;16.23;;;6.45;;
20984;SDS011;10651;47.552;7.606;2022-11-24T19:08:34;17.40;;;6.13;;
20984;SDS011;10651;47.552;7.606;2022-11-24T19:11:02;11.90;;;6.38;;
20984;SDS011;10651;47.552;7.606;2022-11-24T19:13:28;12.73;;;6.07;;
20984;SDS011;10651;47.552;7.606;2022-11-24T19:15:54;19.10;;;6.55;;
20984;SDS011;10651;47.552;7.606;2022-11-24T19:18:19;17.95;;;6.55;;
20984;SDS011;10651;47.552;7.606;2022-11-24T19:20:46;18.48;;;6.47;;
20984;SDS011;10651;47.552;7.606;2022-11-24T19:23:11;14.00;;;6.85;;
20984;SDS011;10651;47.552;7.606;2022-11-24T19:25:37;13.15;;;6.43;;
20984;SDS011;10651;47.552;7.606;2022-11-24T19:28:03;19.03;;;6.40;;
20984;SDS011;10651;47.552;7.606;2022-11-24T19:30:29;15.55;;;6.50;;
20984;SDS011;10651;47.552;7.606;2022-11-24T19:32:55;12.75;;;5.93;;
20984;SDS011;10651;47.552;7.606;2022-11-24T19:35:21;13.30;;;5.93;;
20984;SDS011;10651;47.552;7.606;2022-11-24T19:37:47;9.65;;;5.60;;
20984;SDS011;10651;47.552;7.606;2022-11-24T19:40:13;9.27;;;6.20;;
20984;SDS011;10651;47.552;7.606;2022-11-24T19:42:38;14.50;;;6.70;;
20984;SDS011;10651;47.552;7.606;2022-11-24T19:45:04;9.55;;;6.07;;
20984;SDS011;10651;47.552;7.606;2022-11-24T19:47:31;9.45;;;6.32;;
20984;SDS011;10651;47.552;7.606;2022-11-24T19:49:57;12.55;;;5.72;;
20984;SDS011;10651;47.552;7.606;2022-11-24T19:52:22;10.40;;;5.97;;
20984;SDS011;10651;47.552;7.606;2022-11-24T19:54:48;15.43;;;6.20;;
20984;SDS011;10651;47.552;7.606;2022-11-24T19:57:14;15.32;;;8.32;;
20984;SDS011;10651;47.552;7.606;2022-11-24T19:59:39;20.33;;;6.70;;
20984;SDS011;10651;47.552;7.606;2022-11-24T20:02:05;11.32;;;5.18;;
20984;SDS011;10651;47.552;7.606;2022-11-24T20:04:31;12.02;;;5.78;;
20984;SDS011;10651;47.552;7.606;2022-11-24T20:07:02;12.07;;;6.05;;
20984;SDS011;10651;47.552;7.606;2022-11-24T20:09:27;11.65;;;6.30;;
20984;SDS011;10651;47.552;7.606;2022-11-24T20:11:53;10.00;;;6.20;;
20984;SDS011;10651;47.552;7.606;2022-11-24T20:14:19;12.60;;;5.68;;
20984;SDS011;10651;47.552;7.606;2022-11-24T20:16:46;13.80;;;6.38;;
20984;SDS011;10651;47.552;7.606;2022-11-24T20:19:12;12.00;;;6.07;;
20984;SDS011;10651;47.552;7.606;2022-11-24T20:21:40;13.23;;;6.25;;
20984;SDS011;10651;47.552;7.606;2022-11-24T20:24:10;15.23;;;6.40;;
20984;SDS011;10651;47.552;7.606;2022-11-24T20:26:44;15.23;;;6.43;;
20984;SDS011;10651;47.552;7.606;2022-11-24T20:29:12;12.13;;;5.43;;
20984;SDS011;10651;47.552;7.606;2022-11-24T20:31:40;14.80;;;5.88;;
20984;SDS011;10651;47.552;7.606;2022-11-24T20:34:07;14.85;;;6.47;;
20984;SDS011;10651;47.552;7.606;2022-11-24T20:36:34;11.80;;;6.03;;
20984;SDS011;10651;47.552;7.606;2022-11-24T20:39:03;11.70;;;6.18;;
20984;SDS011;10651;47.552;7.606;2022-11-24T20:41:31;12.70;;;6.15;;
20984;SDS011;10651;47.552;7.606;2022-11-24T20:43:59;15.88;;;6.45;;
20984;SDS011;10651;47.552;7.606;2022-11-24T20:46:29;20.27;;;7.07;;
20984;SDS011;10651;47.552;7.606;2022-11-24T20:48:56;13.27;;;5.93;;
20984;SDS011;10651;47.552;7.606;2022-11-24T20:51:24;14.93;;;7.47;;
20984;SDS011;10651;47.552;7.606;2022-11-24T20:53:52;10.68;;;6.63;;
20984;SDS011;10651;47.552;7.606;2022-11-24T20:56:21;10.63;;;6.38;;
20984;SDS011;10651;47.552;7.606;2022-11-24T20:58:48;15.57;;;7.03;;
20984;SDS011;10651;47.552;7.606;2022-11-24T21:01:16;14.32;;;7.07;;
20984;SDS011;10651;47.552;7.606;2022-11-24T21:03:46;14.45;;;7.63;;
20984;SDS011;10651;47.552;7.606;2022-11-24T21:06:17;16.95;;;7.00;;
20984;SDS011;10651;47.552;7.606;2022-11-24T21:08:42;14.15;;;7.18;;
20984;SDS011;10651;47.552;7.606;2022-11-24T21:11:09;15.88;;;7.22;;
20984;SDS011;10651;47.552;7.606;2022-11-24T21:13:37;19.42;;;7.18;;
20984;SDS011;10651;47.552;7.606;2022-11-24T21:16:11;14.30;;;6.65;;
20984;SDS011;10651;47.552;7.606;2022-11-24T21:18:44;13.38;;;6.75;;
20984;SDS011;10651;47.552;7.606;2022-11-24T21:21:12;18.25;;;6.90;;
20984;SDS011;10651;47.552;7.606;2022-11-24T21:23:38;17.73;;;6.95;;
20984;SDS011;10651;47.552;7.606;2022-11-24T21:26:05;12.07;;;6.70;;
20984;SDS011;10651;47.552;7.606;2022-11-24T21:28:32;15.23;;;6.80;;
20984;SDS011;10651;47.552;7.606;2022-11-24T21:31:09;18.27;;;7.25;;
20984;SDS011;10651;47.552;7.606;2022-11-24T21:33:43;11.30;;;6.65;;
20984;SDS011;10651;47.552;7.606;2022-11-24T21:36:14;18.75;;;7.32;;
20984;SDS011;10651;47.552;7.606;2022-11-24T21:38:41;16.85;;;6.90;;
20984;SDS011;10651;47.552;7.606;2022-11-24T21:41:08;18.38;;;7.65;;
20984;SDS011;10651;47.552;7.606;2022-11-24T21:43:35;15.15;;;8.13;;
20984;SDS011;10651;47.552;7.606;2022-11-24T21:46:08;15.35;;;7.72;;
20984;SDS011;10651;47.552;7.606;2022-11-24T21:48:35;18.75;;;8.30;;
20984;SDS011;10651;47.552;7.606;2022-11-24T21:51:02;14.98;;;8.30;;
20984;SDS011;10651;47.552;7.606;2022-11-24T21:53:30;18.38;;;8.73;;
20984;SDS011;10651;47.552;7.606;2022-11-24T21:56:02;15.18;;;8.35;;
20984;SDS011;10651;47.552;7.606;2022-11-24T21:58:29;14.13;;;8.48;;
20984;SDS011;10651;47.552;7.606;2022-11-24T22:01:02;27.45;;;9.55;;
20984;SDS011;10651;47.552;7.606;2022-11-24T22:03:29;16.67;;;8.70;;
20984;SDS011;10651;47.552;7.606;2022-11-24T22:05:56;21.45;;;8.73;;
20984;SDS011;10651;47.552;7.606;2022-11-24T22:08:23;17.13;;;9.38;;
20984;SDS011;10651;47.552;7.606;2022-11-24T22:10:50;15.10;;;9.68;;
20984;SDS011;10651;47.552;7.606;2022-11-24T22:13:16;21.67;;;8.95;;
20984;SDS011;10651;47.552;7.606;2022-11-24T22:15:42;15.80;;;9.27;;
20984;SDS011;10651;47.552;7.606;2022-11-24T22:18:08;18.98;;;9.10;;
20984;SDS011;10651;47.552;7.606;2022-11-24T22:20:34;18.48;;;9.43;;
20984;SDS011;10651;47.552;7.606;2022-11-24T22:23:00;19.45;;;8.27;;
20984;SDS011;10651;47.552;7.606;2022-11-24T22:25:25;16.02;;;8.68;;
20984;SDS011;10651;47.552;7.606;2022-11-24T22:27:51;19.02;;;9.65;;
20984;SDS011;10651;47.552;7.606;2022-11-24T22:30:17;23.23;;;9.30;;
20984;SDS011;10651;47.552;7.606;2022-11-24T22:32:43;14.10;;;8.52;;
20984;SDS011;10651;47.552;7.606;2022-11-24T22:35:08;17.75;;;9.20;;
20984;SDS011;10651;47.552;7.606;2022-11-24T22:37:34;19.10;;;9.90;;
20984;SDS011;10651;47.552;7.606;2022-11-24T22:40:00;18.45;;;8.88;;
20984;SDS011;10651;47.552;7.606;2022-11-24T22:42:26;18.80;;;9.90;;
20984;SDS011;10651;47.552;7.606;2022-11-24T22:44:51;18.63;;;9.52;;
20984;SDS011;10651;47.552;7.606;2022-11-24T22:47:17;17.10;;;9.45;;
20984;SDS011;10651;47.552;7.606;2022-11-24T22:49:43;16.52;;;9.40;;
20984;SDS011;10651;47.552;7.606;2022-11-24T22:52:08;21.10;;;9.32;;
20984;SDS011;10651;47.552;7.606;2022-11-24T22:54:34;16.23;;;9.63;;
20984;SDS011;10651;47.552;7.606;2022-11-24T22:57:00;14.52;;;8.57;;
20984;SDS011;10651;47.552;7.606;2022-11-24T22:59:25;18.42;;;9.00;;
20984;SDS011;10651;47.552;7.606;2022-11-24T23:01:51;17.90;;;9.00;;
20984;SDS011;10651;47.552;7.606;2022-11-24T23:04:17;17.27;;;9.50;;
20984;SDS011;10651;47.552;7.606;2022-11-24T23:06:42;14.88;;;8.90;;
20984;SDS011;10651;47.552;7.606;2022-11-24T23:09:09;24.45;;;9.63;;
